createdAt,value
2018-04-02T00:00:37.411Z,3.00
2018-04-02T00:03:04.992Z,2.90
2018-04-02T00:05:32.493Z,2.90
2018-04-02T00:07:59.994Z,2.90
2018-04-02T00:10:27.535Z,2.90
2018-04-02T00:12:55.048Z,2.90
2018-04-02T00:15:22.556Z,2.90
2018-04-02T00:17:50.067Z,2.90
2018-04-02T00:20:17.574Z,2.90
2018-04-02T00:22:45.128Z,2.80
2018-04-02T00:25:12.615Z,2.80
2018-04-02T00:27:40.108Z,2.80
2018-04-02T00:30:07.619Z,2.80
2018-04-02T00:32:35.111Z,2.80
2018-04-02T00:35:03.382Z,2.80
2018-04-02T00:37:30.905Z,2.80
2018-04-02T00:39:58.408Z,2.80
2018-04-02T00:42:25.947Z,2.80
2018-04-02T00:44:53.652Z,2.80
2018-04-02T00:47:21.163Z,2.80
2018-04-02T00:49:48.692Z,2.90
2018-04-02T00:52:16.966Z,2.90
2018-04-02T00:57:37.020Z,2.90
2018-04-02T01:00:04.535Z,2.90
2018-04-02T01:02:32.042Z,2.90
2018-04-02T01:05:00.332Z,2.80
2018-04-02T01:07:27.829Z,2.80
2018-04-02T01:09:55.323Z,2.80
2018-04-02T01:12:23.608Z,2.80
2018-04-02T01:14:51.342Z,2.70
2018-04-02T01:17:18.912Z,2.80
2018-04-02T01:19:46.443Z,2.80
2018-04-02T01:22:13.936Z,2.90
2018-04-02T01:24:41.546Z,3.00
2018-04-02T01:27:09.056Z,3.00
2018-04-02T01:29:37.352Z,3.00
2018-04-02T01:32:04.890Z,3.00
2018-04-02T01:40:28.530Z,2.90
2018-04-02T01:42:56.109Z,3.00
2018-04-02T01:45:28.732Z,3.00
2018-04-02T01:47:56.288Z,3.10
2018-04-02T01:50:23.797Z,3.10
2018-04-02T01:52:51.324Z,3.10
2018-04-02T01:55:18.866Z,3.10
2018-04-02T01:57:46.398Z,3.10
2018-04-02T02:00:13.888Z,3.10
2018-04-02T02:02:42.199Z,3.00
2018-04-02T02:05:19.376Z,3.00
2018-04-02T02:07:46.940Z,2.80
2018-04-02T02:10:14.455Z,2.70
2018-04-02T02:12:41.956Z,2.60
2018-04-02T02:15:09.472Z,2.50
2018-04-02T02:17:36.983Z,2.50
2018-04-02T02:20:04.512Z,2.40
2018-04-02T02:22:32.026Z,2.40
2018-04-02T02:24:59.549Z,2.30
2018-04-02T02:27:27.080Z,2.30
2018-04-02T02:29:54.567Z,2.30
2018-04-02T02:32:22.081Z,2.30
2018-04-02T02:34:49.624Z,2.20
2018-04-02T02:37:17.236Z,2.20
2018-04-02T02:39:44.768Z,2.20
2018-04-02T02:42:12.281Z,2.20
2018-04-02T02:44:39.825Z,2.30
2018-04-02T02:47:07.375Z,2.30
2018-04-02T02:49:34.898Z,2.30
2018-04-02T02:52:02.457Z,2.30
2018-04-02T02:54:30.745Z,2.10
2018-04-02T02:56:58.248Z,2.10
2018-04-02T02:59:25.744Z,2.10
2018-04-02T03:01:54.025Z,2.10
2018-04-02T03:07:14.759Z,2.10
2018-04-02T03:09:42.431Z,2.00
2018-04-02T03:12:09.935Z,2.00
2018-04-02T03:14:37.508Z,1.90
2018-04-02T03:17:05.769Z,1.90
2018-04-02T03:19:33.268Z,1.90
2018-04-02T03:22:00.783Z,2.00
2018-04-02T03:24:42.803Z,2.10
2018-04-02T03:27:10.355Z,2.10
2018-04-02T03:29:37.863Z,2.00
2018-04-02T03:32:05.373Z,2.00
2018-04-02T03:34:33.657Z,1.90
2018-04-02T03:37:01.201Z,1.90
2018-04-02T03:39:28.708Z,1.90
2018-04-02T03:41:56.243Z,2.00
2018-04-02T03:44:23.730Z,1.90
2018-04-02T03:46:51.268Z,2.00
2018-04-02T03:49:18.798Z,2.00
2018-04-02T03:51:46.477Z,2.00
2018-04-02T03:54:13.976Z,2.10
2018-04-02T03:56:41.529Z,2.10
2018-04-02T03:59:09.060Z,2.10
2018-04-02T04:01:36.564Z,2.10
2018-04-02T04:04:04.088Z,2.10
2018-04-02T04:06:31.588Z,2.10
2018-04-02T04:08:59.122Z,2.00
2018-04-02T04:11:26.676Z,2.00
2018-04-02T04:13:54.188Z,2.00
2018-04-02T04:16:21.681Z,2.00
2018-04-02T04:18:49.234Z,2.00
2018-04-02T04:21:16.724Z,2.00
2018-04-02T04:23:44.272Z,2.00
2018-04-02T04:26:11.766Z,2.00
2018-04-02T04:28:40.065Z,2.00
2018-04-02T04:31:08.356Z,2.00
2018-04-02T04:33:35.863Z,2.00
2018-04-02T04:36:03.368Z,2.00
2018-04-02T04:38:30.884Z,1.90
2018-04-02T04:40:58.390Z,1.80
2018-04-02T04:43:25.928Z,1.70
2018-04-02T04:45:53.483Z,1.70
2018-04-02T04:48:21.032Z,1.70
2018-04-02T04:50:49.311Z,1.70
2018-04-02T04:53:17.612Z,1.70
2018-04-02T04:55:45.252Z,1.70
2018-04-02T04:58:12.780Z,1.70
2018-04-02T05:00:40.321Z,1.70
2018-04-02T05:03:07.820Z,1.70
2018-04-02T05:05:35.376Z,1.70
2018-04-02T05:08:02.911Z,1.70
2018-04-02T05:10:30.412Z,1.70
2018-04-02T05:12:57.919Z,1.60
2018-04-02T05:15:49.542Z,1.50
2018-04-02T05:18:17.113Z,1.50
2018-04-02T05:20:44.691Z,1.40
2018-04-02T05:23:12.191Z,1.40
2018-04-02T05:25:39.758Z,1.40
2018-04-02T05:28:07.240Z,1.40
2018-04-02T05:30:34.761Z,1.40
2018-04-02T05:33:02.273Z,1.30
2018-04-02T05:35:29.776Z,1.30
2018-04-02T05:37:57.303Z,1.20
2018-04-02T05:40:25.564Z,1.20
2018-04-02T05:42:53.090Z,1.20
2018-04-02T05:48:13.764Z,1.30
2018-04-02T05:50:41.288Z,1.30
2018-04-02T05:53:08.801Z,1.30
2018-04-02T05:55:36.328Z,1.40
2018-04-02T05:58:03.821Z,1.40
2018-04-02T06:00:31.318Z,1.30
2018-04-02T06:02:58.819Z,1.20
2018-04-02T06:05:26.370Z,1.20
2018-04-02T06:07:54.684Z,1.20
2018-04-02T06:10:22.216Z,1.20
2018-04-02T06:12:49.748Z,1.30
2018-04-02T06:15:31.686Z,1.30
2018-04-02T06:17:59.183Z,1.40
2018-04-02T06:20:26.667Z,1.40
2018-04-02T06:22:54.164Z,1.50
2018-04-02T06:28:24.669Z,1.60
2018-04-02T06:30:52.982Z,1.70
2018-04-02T06:33:20.473Z,1.70
2018-04-02T06:35:47.975Z,1.70
2018-04-02T06:38:15.468Z,1.70
2018-04-02T06:40:42.992Z,1.60
2018-04-02T06:43:10.569Z,1.60
2018-04-02T06:45:38.063Z,1.70
2018-04-02T06:48:05.559Z,1.70
2018-04-02T06:50:33.099Z,1.70
2018-04-02T06:53:02.103Z,1.80
2018-04-02T06:55:29.640Z,1.80
2018-04-02T06:57:57.196Z,1.90
2018-04-02T07:00:24.688Z,1.90
2018-04-02T07:02:52.188Z,2.00
2018-04-02T07:05:19.731Z,1.90
2018-04-02T07:07:47.257Z,2.00
2018-04-02T07:10:14.788Z,2.10
2018-04-02T07:12:42.300Z,2.20
2018-04-02T07:15:09.837Z,2.20
2018-04-02T07:17:37.328Z,2.20
2018-04-02T07:20:04.864Z,2.30
2018-04-02T07:22:32.403Z,2.30
2018-04-02T07:36:31.656Z,2.80
2018-04-02T07:38:59.173Z,2.90
2018-04-02T07:41:26.722Z,3.10
2018-04-02T07:43:54.219Z,3.30
2018-04-02T07:46:31.640Z,3.40
2018-04-02T07:48:59.157Z,3.50
2018-04-02T07:51:26.685Z,3.60
2018-04-02T07:53:54.200Z,3.70
2018-04-02T07:56:21.700Z,3.80
2018-04-02T07:58:49.220Z,3.90
2018-04-02T08:01:17.480Z,4.10
2018-04-02T08:03:44.994Z,4.10
2018-04-02T08:06:12.549Z,4.20
2018-04-02T08:08:40.126Z,4.30
2018-04-02T08:11:07.621Z,4.40
2018-04-02T08:13:35.192Z,4.60
2018-04-02T08:16:16.988Z,4.80
2018-04-02T08:18:44.524Z,5.20
2018-04-02T08:21:12.052Z,5.60
2018-04-02T08:23:39.579Z,6.00
2018-04-02T08:37:38.099Z,7.00
2018-04-02T08:40:05.617Z,7.20
2018-04-02T08:42:33.165Z,7.50
2018-04-02T08:45:00.792Z,7.70
2018-04-02T08:47:29.120Z,8.20
2018-04-02T08:49:56.662Z,8.20
2018-04-02T08:52:24.180Z,8.40
2018-04-02T08:54:57.664Z,8.90
2018-04-02T08:57:25.221Z,8.90
2018-04-02T08:59:52.737Z,9.10
2018-04-02T09:02:20.260Z,9.20
2018-04-02T09:04:52.696Z,9.10
2018-04-02T09:07:20.224Z,9.00
2018-04-02T09:09:47.740Z,9.00
2018-04-02T09:12:16.040Z,9.10
2018-04-02T09:14:53.280Z,9.10
2018-04-02T09:17:20.809Z,9.40
2018-04-02T09:19:48.321Z,9.60
2018-04-02T09:22:16.600Z,9.90
2018-04-02T09:24:44.145Z,9.80
2018-04-02T09:27:11.599Z,9.90
2018-04-02T09:29:39.147Z,10.00
2018-04-02T09:32:06.653Z,10.10
2018-04-02T09:34:34.189Z,10.20
2018-04-02T09:37:02.469Z,10.20
2018-04-02T09:39:30.049Z,10.20
2018-04-02T09:41:57.592Z,10.30
2018-04-02T09:44:25.223Z,10.30
2018-04-02T09:46:52.720Z,10.40
2018-04-02T09:49:20.256Z,10.50
2018-04-02T09:51:48.588Z,10.70
2018-04-02T09:54:21.212Z,10.70
2018-04-02T09:56:49.487Z,10.70
2018-04-02T09:59:17.005Z,10.70
2018-04-02T10:01:44.570Z,10.70
2018-04-02T10:04:12.039Z,10.90
2018-04-02T10:06:39.607Z,11.10
2018-04-02T10:09:07.104Z,11.10
2018-04-02T10:11:34.609Z,11.20
2018-04-02T10:14:02.131Z,11.30
2018-04-02T10:16:34.777Z,11.30
2018-04-02T10:19:03.104Z,11.40
2018-04-02T10:21:30.684Z,11.40
2018-04-02T10:23:58.275Z,11.40
2018-04-02T10:26:25.739Z,11.50
2018-04-02T10:28:53.273Z,11.70
2018-04-02T10:31:20.784Z,11.80
2018-04-02T10:33:48.309Z,11.90
2018-04-02T10:36:16.620Z,12.00
2018-04-02T10:38:44.168Z,12.00
2018-04-02T10:41:11.671Z,12.10
2018-04-02T10:43:39.219Z,12.20
2018-04-02T10:46:06.720Z,12.30
2018-04-02T10:48:34.991Z,12.40
2018-04-02T10:51:02.545Z,12.30
2018-04-02T10:53:30.851Z,12.50
2018-04-02T10:55:58.375Z,12.50
2018-04-02T10:58:25.923Z,12.60
2018-04-02T11:00:53.429Z,12.60
2018-04-02T11:03:20.949Z,12.80
2018-04-02T11:05:49.309Z,13.10
2018-04-02T11:08:16.823Z,13.00
2018-04-02T11:10:44.368Z,13.20
2018-04-02T11:13:11.923Z,13.30
2018-04-02T11:15:39.520Z,13.40
2018-04-02T11:18:07.043Z,13.50
2018-04-02T11:20:34.643Z,13.50
2018-04-02T11:23:02.146Z,13.60
2018-04-02T11:25:30.425Z,13.70
2018-04-02T11:27:58.743Z,13.70
2018-04-02T11:30:26.300Z,13.70
2018-04-02T11:32:53.805Z,13.80
2018-04-02T11:38:15.240Z,14.00
2018-04-02T11:40:42.768Z,14.10
2018-04-02T11:43:10.266Z,14.10
2018-04-02T11:45:38.572Z,14.30
2018-04-02T11:48:06.090Z,14.30
2018-04-02T11:50:34.393Z,14.70
2018-04-02T11:53:01.930Z,14.70
2018-04-02T11:55:40.012Z,14.90
2018-04-02T11:58:07.523Z,14.90
2018-04-02T12:00:35.025Z,15.50
2018-04-02T12:03:02.631Z,16.00
2018-04-02T12:05:30.145Z,16.30
2018-04-02T12:07:57.669Z,16.20
2018-04-02T12:10:25.173Z,16.10
2018-04-02T12:12:53.455Z,16.00
2018-04-02T12:15:44.900Z,16.00
2018-04-02T12:18:12.437Z,16.20
2018-04-02T12:20:40.724Z,16.50
2018-04-02T12:23:08.244Z,16.50
2018-04-02T12:25:35.908Z,16.50
2018-04-02T12:28:03.435Z,16.70
2018-04-02T12:30:31.000Z,16.70
2018-04-02T12:32:58.505Z,16.50
2018-04-02T12:35:31.032Z,16.40
2018-04-02T12:37:58.560Z,16.30
2018-04-02T12:40:26.064Z,16.20
2018-04-02T12:42:53.632Z,16.20
2018-04-02T12:45:21.180Z,16.20
2018-04-02T12:47:48.720Z,16.20
2018-04-02T12:50:16.253Z,16.30
2018-04-02T12:52:43.769Z,16.30
2018-04-02T12:55:11.294Z,16.20
2018-04-02T12:57:38.888Z,16.30
2018-04-02T13:00:06.441Z,16.40
2018-04-02T13:02:33.948Z,16.50
2018-04-02T13:05:01.509Z,16.60
2018-04-02T13:07:29.039Z,16.50
2018-04-02T13:09:57.332Z,16.40
2018-04-02T13:12:24.856Z,16.40
2018-04-02T13:14:52.369Z,16.40
2018-04-02T13:17:19.871Z,16.40
2018-04-02T13:19:47.382Z,16.30
2018-04-02T13:22:14.927Z,16.10
2018-04-02T13:24:42.491Z,16.00
2018-04-02T13:27:09.989Z,16.00
2018-04-02T13:29:37.500Z,16.00
2018-04-02T13:32:04.999Z,16.10
2018-04-02T13:34:32.544Z,16.10
2018-04-02T13:37:00.073Z,16.10
2018-04-02T13:39:27.600Z,16.10
2018-04-02T13:41:55.173Z,16.10
2018-04-02T13:44:22.682Z,16.10
2018-04-02T13:46:50.192Z,16.10
2018-04-02T13:49:18.532Z,16.30
2018-04-02T13:51:46.052Z,16.30
2018-04-02T13:54:13.597Z,16.50
2018-04-02T13:56:41.155Z,16.50
2018-04-02T13:59:08.673Z,16.70
2018-04-02T14:01:36.193Z,16.80
2018-04-02T14:04:03.717Z,16.80
2018-04-02T14:06:31.258Z,16.70
2018-04-02T14:08:58.788Z,16.70
2018-04-02T14:11:26.302Z,16.60
2018-04-02T14:13:53.862Z,16.60
2018-04-02T14:16:21.367Z,16.50
2018-04-02T14:18:48.927Z,16.40
2018-04-02T14:21:16.613Z,16.30
2018-04-02T14:23:44.160Z,16.30
2018-04-02T14:26:11.662Z,16.20
2018-04-02T14:28:39.181Z,16.20
2018-04-02T14:31:06.724Z,16.10
2018-04-02T14:33:34.237Z,16.00
2018-04-02T14:36:06.807Z,16.00
2018-04-02T14:38:34.304Z,16.00
2018-04-02T14:41:01.861Z,16.00
2018-04-02T14:43:29.864Z,16.00
2018-04-02T14:46:07.007Z,16.00
2018-04-02T14:48:34.571Z,15.90
2018-04-02T14:51:02.059Z,15.80
2018-04-02T14:53:29.583Z,15.80
2018-04-02T14:55:57.109Z,15.80
2018-04-02T14:58:24.616Z,15.80
2018-04-02T15:00:52.104Z,15.70
2018-04-02T15:03:19.692Z,15.70
2018-04-02T15:05:47.212Z,15.80
2018-04-02T15:08:14.721Z,15.90
2018-04-02T15:10:42.308Z,15.80
2018-04-02T15:13:09.804Z,15.80
2018-04-02T15:15:38.119Z,15.80
2018-04-02T15:18:05.684Z,15.80
2018-04-02T15:20:33.181Z,15.80
2018-04-02T15:23:00.690Z,15.70
2018-04-02T15:25:28.208Z,15.70
2018-04-02T15:27:55.713Z,15.70
2018-04-02T15:30:23.263Z,15.70
2018-04-02T15:32:50.806Z,15.70
2018-04-02T15:35:18.320Z,15.60
2018-04-02T15:37:45.920Z,15.60
2018-04-02T15:40:13.453Z,15.60
2018-04-02T15:42:41.747Z,15.50
2018-04-02T15:45:10.163Z,15.50
2018-04-02T15:47:37.720Z,15.50
2018-04-02T15:50:05.215Z,15.40
2018-04-02T15:52:32.700Z,15.40
2018-04-02T15:55:00.220Z,15.40
2018-04-02T15:57:27.744Z,15.40
2018-04-02T15:59:55.253Z,15.50
2018-04-02T16:02:22.792Z,15.40
2018-04-02T16:04:50.297Z,15.50
2018-04-02T16:07:17.805Z,15.50
2018-04-02T16:09:45.346Z,15.50
2018-04-02T16:12:12.836Z,15.50
2018-04-02T16:14:40.408Z,15.40
2018-04-02T16:17:07.916Z,15.40
2018-04-02T16:19:35.445Z,15.40
2018-04-02T16:22:02.997Z,15.40
2018-04-02T16:24:30.529Z,15.40
2018-04-02T16:26:58.051Z,15.40
2018-04-02T16:29:25.573Z,15.40
2018-04-02T16:31:53.147Z,15.40
2018-04-02T16:34:20.680Z,15.40
2018-04-02T16:36:48.955Z,15.30
2018-04-02T16:39:16.516Z,15.30
2018-04-02T16:41:44.036Z,15.30
2018-04-02T16:44:11.533Z,15.30
2018-04-02T16:46:39.828Z,15.30
2018-04-02T16:49:07.384Z,15.20
2018-04-02T16:51:34.978Z,15.20
2018-04-02T16:54:02.518Z,15.30
2018-04-02T16:56:30.221Z,15.20
2018-04-02T16:58:57.733Z,15.20
2018-04-02T17:01:25.252Z,15.20
2018-04-02T17:03:53.534Z,15.20
2018-04-02T17:06:21.909Z,15.20
2018-04-02T17:08:49.424Z,15.20
2018-04-02T17:11:16.936Z,15.20
2018-04-02T17:13:45.220Z,15.10
2018-04-02T17:16:27.021Z,15.10
2018-04-02T17:18:54.545Z,15.10
2018-04-02T17:21:22.071Z,15.10
2018-04-02T17:23:49.568Z,15.10
2018-04-02T17:26:17.843Z,15.00
2018-04-02T17:28:45.451Z,15.00
2018-04-02T17:31:12.955Z,14.90
2018-04-02T17:33:40.460Z,14.80
2018-04-02T17:36:07.981Z,14.80
2018-04-02T17:38:35.488Z,14.80
2018-04-02T17:41:03.001Z,14.80
2018-04-02T17:43:30.536Z,14.80
2018-04-02T17:45:58.121Z,14.80
2018-04-02T17:48:25.620Z,14.80
2018-04-02T17:50:53.188Z,14.80
2018-04-02T17:53:20.696Z,14.70
2018-04-02T17:55:48.247Z,14.70
2018-04-02T17:58:15.860Z,14.70
2018-04-02T18:00:43.360Z,14.70
2018-04-02T18:03:10.877Z,14.60
2018-04-02T18:05:38.463Z,14.60
2018-04-02T18:08:06.009Z,14.50
2018-04-02T18:10:33.516Z,14.40
2018-04-02T18:13:01.052Z,14.40
2018-04-02T18:18:21.828Z,14.40
2018-04-02T18:20:49.335Z,14.40
2018-04-02T18:23:17.644Z,14.30
2018-04-02T18:25:45.159Z,14.30
2018-04-02T18:28:12.685Z,14.30
2018-04-02T18:30:40.216Z,14.30
2018-04-02T18:33:07.728Z,14.20
2018-04-02T18:35:35.224Z,14.20
2018-04-02T18:38:02.811Z,14.20
2018-04-02T18:40:30.383Z,14.20
2018-04-02T18:42:57.901Z,14.20
2018-04-02T18:45:44.976Z,14.20
2018-04-02T18:48:12.523Z,14.20
2018-04-02T18:50:40.029Z,14.20
2018-04-02T18:53:07.572Z,14.20
2018-04-02T18:55:35.071Z,14.20
2018-04-02T18:58:02.568Z,14.20
2018-04-02T19:00:30.108Z,14.20
2018-04-02T19:02:57.625Z,14.20
2018-04-02T19:05:25.140Z,14.20
2018-04-02T19:07:52.642Z,14.20
2018-04-02T19:10:20.141Z,14.10
2018-04-02T19:12:47.671Z,14.10
2018-04-02T19:15:15.188Z,14.10
2018-04-02T19:17:42.765Z,14.10
2018-04-02T19:20:10.287Z,14.10
2018-04-02T19:22:37.808Z,14.10
2018-04-02T19:25:05.334Z,14.00
2018-04-02T19:27:32.881Z,14.00
2018-04-02T19:30:01.176Z,13.90
2018-04-02T19:32:28.673Z,14.00
2018-04-02T19:34:56.224Z,14.00
2018-04-02T19:37:23.767Z,14.10
2018-04-02T19:39:51.276Z,14.00
2018-04-02T19:42:18.791Z,14.00
2018-04-02T19:44:46.328Z,14.00
2018-04-02T19:47:13.839Z,14.00
2018-04-02T19:49:41.335Z,14.10
2018-04-02T19:52:08.928Z,14.10
2018-04-02T19:54:36.432Z,14.10
2018-04-02T19:57:03.926Z,14.10
2018-04-02T19:59:31.480Z,14.10
2018-04-02T20:01:58.988Z,14.10
2018-04-02T20:04:26.506Z,14.00
2018-04-02T20:06:54.040Z,14.00
2018-04-02T20:09:21.540Z,14.00
2018-04-02T20:11:49.040Z,14.00
2018-04-02T20:14:17.327Z,14.00
2018-04-02T20:16:44.901Z,14.00
2018-04-02T20:19:12.544Z,14.00
2018-04-02T20:21:40.077Z,14.00
2018-04-02T20:24:07.618Z,14.00
2018-04-02T20:26:49.666Z,14.00
2018-04-02T20:29:17.213Z,14.10
2018-04-02T20:31:44.715Z,14.00
2018-04-02T20:34:12.230Z,14.00
2018-04-02T20:36:40.588Z,14.00
2018-04-02T20:39:08.164Z,14.00
2018-04-02T20:41:36.456Z,13.90
2018-04-02T20:44:03.981Z,13.90
2018-04-02T20:46:31.477Z,13.90
2018-04-02T20:48:58.997Z,13.90
2018-04-02T20:51:26.532Z,14.00
2018-04-02T20:53:54.040Z,14.00
2018-04-02T20:56:21.580Z,14.10
2018-04-02T20:58:49.842Z,14.00
2018-04-02T21:01:17.348Z,14.00
2018-04-02T21:03:44.875Z,14.00
2018-04-02T21:06:13.182Z,14.00
2018-04-02T21:08:40.712Z,13.90
2018-04-02T21:11:08.232Z,13.90
2018-04-02T21:13:35.768Z,14.00
2018-04-02T21:16:03.288Z,14.00
2018-04-02T21:18:31.628Z,14.00
2018-04-02T21:20:59.144Z,14.00
2018-04-02T21:23:27.424Z,14.00
2018-04-02T21:25:54.945Z,14.00
2018-04-02T21:28:22.512Z,14.00
2018-04-02T21:30:50.792Z,14.20
2018-04-02T21:33:19.064Z,14.20
2018-04-02T21:50:10.660Z,14.10
2018-04-02T21:52:38.188Z,14.10
2018-04-02T21:55:10.815Z,14.00
2018-04-02T21:57:38.352Z,14.10
2018-04-02T22:00:06.760Z,14.10
2018-04-02T22:02:35.108Z,14.00
2018-04-02T22:05:02.596Z,14.00
2018-04-02T22:07:31.722Z,14.00
2018-04-02T22:09:59.240Z,14.00
2018-04-02T22:12:26.776Z,14.00
2018-04-02T22:14:54.285Z,14.00
2018-04-02T22:17:21.799Z,14.00
2018-04-02T22:19:49.388Z,14.00
2018-04-02T22:22:16.911Z,14.10
2018-04-02T22:24:44.418Z,14.00
2018-04-02T22:27:11.924Z,14.00
2018-04-02T22:29:39.457Z,14.00
2018-04-02T22:32:06.992Z,14.10
2018-04-02T22:34:34.501Z,14.00
2018-04-02T22:37:02.049Z,14.10
2018-04-02T22:39:29.582Z,14.10
2018-04-02T22:41:57.080Z,14.10
2018-04-02T22:44:24.609Z,14.00
2018-04-02T22:46:52.124Z,14.10
2018-04-02T22:49:20.387Z,14.10
2018-04-02T22:51:47.928Z,14.10
2018-04-02T22:54:15.424Z,14.00
2018-04-02T22:56:42.921Z,14.10
2018-04-02T22:59:10.472Z,14.10
2018-04-02T23:01:38.000Z,14.10
2018-04-02T23:04:05.544Z,14.10
2018-04-02T23:06:33.826Z,14.10
2018-04-02T23:09:02.086Z,14.00
2018-04-02T23:11:29.608Z,14.00
2018-04-02T23:13:57.157Z,13.90
2018-04-02T23:19:17.794Z,14.00
2018-04-02T23:21:45.315Z,14.00
2018-04-02T23:24:12.839Z,14.00
2018-04-02T23:26:41.112Z,13.90
2018-04-02T23:29:08.717Z,13.90
2018-04-02T23:31:36.228Z,14.00
2018-04-02T23:34:03.748Z,14.10
2018-04-02T23:36:31.276Z,14.10
2018-04-02T23:38:58.808Z,14.00
2018-04-02T23:41:27.080Z,14.00
2018-04-02T23:43:54.640Z,13.90
2018-04-02T23:49:16.212Z,13.90
2018-04-02T23:51:43.752Z,13.90
2018-04-02T23:54:12.052Z,13.80
2018-04-02T23:56:39.780Z,13.80
2018-04-02T23:59:07.274Z,13.80
